sensor_id;sensor_type;location;lat;lon;timestamp;temperature;humidity
3330;DHT22;1677;49.576;10.990;2023-06-22T00:01:01;19.30;99.90
3330;DHT22;1677;49.576;10.990;2023-06-22T00:03:27;19.20;99.90
3330;DHT22;1677;49.576;10.990;2023-06-22T00:05:52;19.20;99.90
3330;DHT22;1677;49.576;10.990;2023-06-22T00:08:18;19.30;99.90
3330;DHT22;1677;49.576;10.990;2023-06-22T00:10:44;19.40;99.90
3330;DHT22;1677;49.576;10.990;2023-06-22T00:13:10;19.40;99.90
3330;DHT22;1677;49.576;10.990;2023-06-22T00:15:36;19.40;99.90
3330;DHT22;1677;49.576;10.990;2023-06-22T00:18:03;19.40;99.90
3330;DHT22;1677;49.576;10.990;2023-06-22T00:20:28;19.30;99.90
3330;DHT22;1677;49.576;10.990;2023-06-22T00:22:54;19.30;99.90
3330;DHT22;1677;49.576;10.990;2023-06-22T00:25:20;19.30;99.90
3330;DHT22;1677;49.576;10.990;2023-06-22T00:27:45;19.20;99.90
3330;DHT22;1677;49.576;10.990;2023-06-22T00:30:11;19.20;99.90
3330;DHT22;1677;49.576;10.990;2023-06-22T00:32:36;19.20;99.90
3330;DHT22;1677;49.576;10.990;2023-06-22T00:35:02;19.30;99.90
3330;DHT22;1677;49.576;10.990;2023-06-22T00:37:28;19.50;99.90
3330;DHT22;1677;49.576;10.990;2023-06-22T00:39:55;19.40;99.90
3330;DHT22;1677;49.576;10.990;2023-06-22T00:42:20;19.30;99.90
3330;DHT22;1677;49.576;10.990;2023-06-22T00:44:46;19.30;99.90
3330;DHT22;1677;49.576;10.990;2023-06-22T00:47:12;19.20;99.90
3330;DHT22;1677;49.576;10.990;2023-06-22T00:49:39;19.10;99.90
3330;DHT22;1677;49.576;10.990;2023-06-22T00:52:05;19.10;99.90
3330;DHT22;1677;49.576;10.990;2023-06-22T00:54:35;19.00;99.90
3330;DHT22;1677;49.576;10.990;2023-06-22T00:57:01;18.90;99.90
3330;DHT22;1677;49.576;10.990;2023-06-22T00:59:26;18.90;99.90
3330;DHT22;1677;49.576;10.990;2023-06-22T01:01:52;18.80;99.90
3330;DHT22;1677;49.576;10.990;2023-06-22T01:04:17;18.70;99.90
3330;DHT22;1677;49.576;10.990;2023-06-22T01:06:59;18.70;99.90
3330;DHT22;1677;49.576;10.990;2023-06-22T01:09:31;18.70;99.90
3330;DHT22;1677;49.576;10.990;2023-06-22T01:12:00;18.60;99.90
3330;DHT22;1677;49.576;10.990;2023-06-22T01:14:37;18.60;99.90
3330;DHT22;1677;49.576;10.990;2023-06-22T01:17:05;18.60;99.90
3330;DHT22;1677;49.576;10.990;2023-06-22T01:22:07;18.50;99.90
3330;DHT22;1677;49.576;10.990;2023-06-22T01:27:12;18.60;99.90
3330;DHT22;1677;49.576;10.990;2023-06-22T01:29:40;18.50;99.90
3330;DHT22;1677;49.576;10.990;2023-06-22T01:32:06;18.40;99.90
3330;DHT22;1677;49.576;10.990;2023-06-22T01:34:32;18.50;99.90
3330;DHT22;1677;49.576;10.990;2023-06-22T01:36:58;18.40;99.90
3330;DHT22;1677;49.576;10.990;2023-06-22T01:39:24;18.40;99.90
3330;DHT22;1677;49.576;10.990;2023-06-22T01:41:50;18.40;99.90
3330;DHT22;1677;49.576;10.990;2023-06-22T01:44:16;18.40;99.90
3330;DHT22;1677;49.576;10.990;2023-06-22T01:46:42;18.40;99.90
3330;DHT22;1677;49.576;10.990;2023-06-22T01:49:07;18.50;99.90
3330;DHT22;1677;49.576;10.990;2023-06-22T01:51:33;18.50;99.90
3330;DHT22;1677;49.576;10.990;2023-06-22T01:53:58;18.50;99.90
3330;DHT22;1677;49.576;10.990;2023-06-22T01:56:24;18.50;99.90
3330;DHT22;1677;49.576;10.990;2023-06-22T01:58:56;18.50;99.90
3330;DHT22;1677;49.576;10.990;2023-06-22T02:01:27;18.40;99.90
3330;DHT22;1677;49.576;10.990;2023-06-22T02:03:58;18.40;99.90
3330;DHT22;1677;49.576;10.990;2023-06-22T02:06:27;18.40;99.90
3330;DHT22;1677;49.576;10.990;2023-06-22T02:08:55;18.30;99.90
3330;DHT22;1677;49.576;10.990;2023-06-22T02:11:22;18.30;99.90
3330;DHT22;1677;49.576;10.990;2023-06-22T02:13:48;18.30;99.90
3330;DHT22;1677;49.576;10.990;2023-06-22T02:16:14;18.20;99.90
3330;DHT22;1677;49.576;10.990;2023-06-22T02:18:47;18.20;99.90
3330;DHT22;1677;49.576;10.990;2023-06-22T02:21:16;18.20;99.90
3330;DHT22;1677;49.576;10.990;2023-06-22T02:23:41;18.30;99.90
3330;DHT22;1677;49.576;10.990;2023-06-22T02:26:07;18.20;99.90
3330;DHT22;1677;49.576;10.990;2023-06-22T02:28:32;18.20;99.90
3330;DHT22;1677;49.576;10.990;2023-06-22T02:30:58;18.20;99.90
3330;DHT22;1677;49.576;10.990;2023-06-22T02:33:23;18.20;99.90
3330;DHT22;1677;49.576;10.990;2023-06-22T02:35:49;18.20;99.90
3330;DHT22;1677;49.576;10.990;2023-06-22T02:38:14;18.20;99.90
3330;DHT22;1677;49.576;10.990;2023-06-22T02:40:40;18.20;99.90
3330;DHT22;1677;49.576;10.990;2023-06-22T02:43:05;18.30;99.90
3330;DHT22;1677;49.576;10.990;2023-06-22T02:45:31;18.40;99.90
3330;DHT22;1677;49.576;10.990;2023-06-22T02:47:56;18.50;99.90
3330;DHT22;1677;49.576;10.990;2023-06-22T02:50:22;18.50;99.90
3330;DHT22;1677;49.576;10.990;2023-06-22T02:52:47;18.70;99.90
3330;DHT22;1677;49.576;10.990;2023-06-22T02:55:13;18.80;99.90
3330;DHT22;1677;49.576;10.990;2023-06-22T02:57:38;19.10;99.90
3330;DHT22;1677;49.576;10.990;2023-06-22T03:00:09;19.20;99.90
3330;DHT22;1677;49.576;10.990;2023-06-22T03:02:45;19.10;99.90
3330;DHT22;1677;49.576;10.990;2023-06-22T03:05:11;19.00;99.90
3330;DHT22;1677;49.576;10.990;2023-06-22T03:07:42;19.00;99.90
3330;DHT22;1677;49.576;10.990;2023-06-22T03:10:08;19.00;99.90
3330;DHT22;1677;49.576;10.990;2023-06-22T03:12:34;18.90;99.90
3330;DHT22;1677;49.576;10.990;2023-06-22T03:15:00;18.80;99.90
3330;DHT22;1677;49.576;10.990;2023-06-22T03:17:25;19.10;99.90
3330;DHT22;1677;49.576;10.990;2023-06-22T03:19:51;19.10;99.90
3330;DHT22;1677;49.576;10.990;2023-06-22T03:22:16;19.10;99.90
3330;DHT22;1677;49.576;10.990;2023-06-22T03:24:41;19.10;99.90
3330;DHT22;1677;49.576;10.990;2023-06-22T03:27:07;19.00;99.90
3330;DHT22;1677;49.576;10.990;2023-06-22T03:29:32;19.00;99.90
3330;DHT22;1677;49.576;10.990;2023-06-22T03:31:59;19.00;99.90
3330;DHT22;1677;49.576;10.990;2023-06-22T03:34:24;18.80;99.90
3330;DHT22;1677;49.576;10.990;2023-06-22T03:36:50;18.80;99.90
3330;DHT22;1677;49.576;10.990;2023-06-22T03:39:16;18.80;99.90
3330;DHT22;1677;49.576;10.990;2023-06-22T03:41:41;19.00;99.90
3330;DHT22;1677;49.576;10.990;2023-06-22T03:44:07;18.90;99.90
3330;DHT22;1677;49.576;10.990;2023-06-22T03:46:35;18.90;99.90
3330;DHT22;1677;49.576;10.990;2023-06-22T03:49:01;18.80;99.90
3330;DHT22;1677;49.576;10.990;2023-06-22T03:51:28;18.90;99.90
3330;DHT22;1677;49.576;10.990;2023-06-22T03:53:54;18.90;99.90
3330;DHT22;1677;49.576;10.990;2023-06-22T03:56:19;18.80;99.90
3330;DHT22;1677;49.576;10.990;2023-06-22T03:58:46;18.70;99.90
3330;DHT22;1677;49.576;10.990;2023-06-22T04:01:11;18.80;99.90
3330;DHT22;1677;49.576;10.990;2023-06-22T04:03:37;18.80;99.90
3330;DHT22;1677;49.576;10.990;2023-06-22T04:06:02;18.90;99.90
3330;DHT22;1677;49.576;10.990;2023-06-22T04:08:28;19.00;99.90
3330;DHT22;1677;49.576;10.990;2023-06-22T04:10:53;19.10;99.90
3330;DHT22;1677;49.576;10.990;2023-06-22T04:13:19;19.10;99.90
3330;DHT22;1677;49.576;10.990;2023-06-22T04:15:44;19.20;99.90
3330;DHT22;1677;49.576;10.990;2023-06-22T04:18:10;19.20;99.90
3330;DHT22;1677;49.576;10.990;2023-06-22T04:20:35;19.20;99.90
3330;DHT22;1677;49.576;10.990;2023-06-22T04:23:01;19.20;99.90
3330;DHT22;1677;49.576;10.990;2023-06-22T04:25:27;19.30;99.90
3330;DHT22;1677;49.576;10.990;2023-06-22T04:27:52;19.30;99.90
3330;DHT22;1677;49.576;10.990;2023-06-22T04:30:18;19.40;99.90
3330;DHT22;1677;49.576;10.990;2023-06-22T04:32:43;19.60;99.90
3330;DHT22;1677;49.576;10.990;2023-06-22T04:35:09;19.60;99.90
3330;DHT22;1677;49.576;10.990;2023-06-22T04:37:35;19.60;99.90
3330;DHT22;1677;49.576;10.990;2023-06-22T04:40:00;19.60;99.90
3330;DHT22;1677;49.576;10.990;2023-06-22T04:42:26;19.60;99.90
3330;DHT22;1677;49.576;10.990;2023-06-22T04:44:52;19.70;99.90
3330;DHT22;1677;49.576;10.990;2023-06-22T04:47:17;19.70;99.90
3330;DHT22;1677;49.576;10.990;2023-06-22T04:49:43;19.80;99.90
3330;DHT22;1677;49.576;10.990;2023-06-22T04:52:09;19.80;99.90
3330;DHT22;1677;49.576;10.990;2023-06-22T04:54:36;20.00;99.90
3330;DHT22;1677;49.576;10.990;2023-06-22T04:57:05;19.90;99.90
3330;DHT22;1677;49.576;10.990;2023-06-22T04:59:35;20.00;99.90
3330;DHT22;1677;49.576;10.990;2023-06-22T05:02:01;20.20;99.90
3330;DHT22;1677;49.576;10.990;2023-06-22T05:04:28;20.30;99.90
3330;DHT22;1677;49.576;10.990;2023-06-22T05:06:56;20.30;99.90
3330;DHT22;1677;49.576;10.990;2023-06-22T05:09:22;20.60;99.90
3330;DHT22;1677;49.576;10.990;2023-06-22T05:11:47;20.50;99.90
3330;DHT22;1677;49.576;10.990;2023-06-22T05:14:13;20.60;99.90
3330;DHT22;1677;49.576;10.990;2023-06-22T05:16:38;20.70;99.90
3330;DHT22;1677;49.576;10.990;2023-06-22T05:19:04;20.80;99.90
3330;DHT22;1677;49.576;10.990;2023-06-22T05:21:30;20.90;99.90
3330;DHT22;1677;49.576;10.990;2023-06-22T05:23:56;21.10;99.90
3330;DHT22;1677;49.576;10.990;2023-06-22T05:26:28;21.20;99.90
3330;DHT22;1677;49.576;10.990;2023-06-22T05:28:54;21.20;99.90
3330;DHT22;1677;49.576;10.990;2023-06-22T05:31:20;21.30;99.90
3330;DHT22;1677;49.576;10.990;2023-06-22T05:33:46;21.30;99.90
3330;DHT22;1677;49.576;10.990;2023-06-22T05:36:12;21.40;99.90
3330;DHT22;1677;49.576;10.990;2023-06-22T05:38:38;21.60;99.90
3330;DHT22;1677;49.576;10.990;2023-06-22T05:41:03;21.50;99.90
3330;DHT22;1677;49.576;10.990;2023-06-22T05:43:29;21.50;99.90
3330;DHT22;1677;49.576;10.990;2023-06-22T05:45:55;21.70;99.90
3330;DHT22;1677;49.576;10.990;2023-06-22T05:48:20;21.80;99.90
3330;DHT22;1677;49.576;10.990;2023-06-22T05:50:46;21.70;99.90
3330;DHT22;1677;49.576;10.990;2023-06-22T05:53:11;21.80;99.90
3330;DHT22;1677;49.576;10.990;2023-06-22T05:55:36;21.90;99.90
3330;DHT22;1677;49.576;10.990;2023-06-22T05:58:02;22.00;99.90
3330;DHT22;1677;49.576;10.990;2023-06-22T06:00:29;21.90;99.90
3330;DHT22;1677;49.576;10.990;2023-06-22T06:02:54;22.00;99.90
3330;DHT22;1677;49.576;10.990;2023-06-22T06:05:20;22.20;99.90
3330;DHT22;1677;49.576;10.990;2023-06-22T06:07:45;22.50;99.90
3330;DHT22;1677;49.576;10.990;2023-06-22T06:10:11;22.60;99.90
3330;DHT22;1677;49.576;10.990;2023-06-22T06:12:37;22.80;99.90
3330;DHT22;1677;49.576;10.990;2023-06-22T06:15:03;23.00;99.90
3330;DHT22;1677;49.576;10.990;2023-06-22T06:17:28;23.00;99.90
3330;DHT22;1677;49.576;10.990;2023-06-22T06:19:54;23.20;99.90
3330;DHT22;1677;49.576;10.990;2023-06-22T06:22:19;23.50;99.90
3330;DHT22;1677;49.576;10.990;2023-06-22T06:24:46;23.70;99.90
3330;DHT22;1677;49.576;10.990;2023-06-22T06:27:13;23.80;99.90
3330;DHT22;1677;49.576;10.990;2023-06-22T06:29:38;23.90;99.90
3330;DHT22;1677;49.576;10.990;2023-06-22T06:32:04;24.00;99.90
3330;DHT22;1677;49.576;10.990;2023-06-22T06:34:29;23.90;99.90
3330;DHT22;1677;49.576;10.990;2023-06-22T06:36:55;24.00;99.90
3330;DHT22;1677;49.576;10.990;2023-06-22T06:39:20;23.90;99.90
3330;DHT22;1677;49.576;10.990;2023-06-22T06:41:46;24.10;99.90
3330;DHT22;1677;49.576;10.990;2023-06-22T06:44:12;24.20;99.90
3330;DHT22;1677;49.576;10.990;2023-06-22T06:46:37;24.40;99.90
3330;DHT22;1677;49.576;10.990;2023-06-22T06:49:03;24.60;99.90
3330;DHT22;1677;49.576;10.990;2023-06-22T06:51:28;24.80;99.90
3330;DHT22;1677;49.576;10.990;2023-06-22T06:53:54;24.90;99.90
3330;DHT22;1677;49.576;10.990;2023-06-22T06:56:20;25.00;99.90
3330;DHT22;1677;49.576;10.990;2023-06-22T06:58:45;25.10;99.90
3330;DHT22;1677;49.576;10.990;2023-06-22T07:01:11;25.10;99.90
3330;DHT22;1677;49.576;10.990;2023-06-22T07:03:37;25.30;99.90
3330;DHT22;1677;49.576;10.990;2023-06-22T07:06:03;25.30;99.90
3330;DHT22;1677;49.576;10.990;2023-06-22T07:08:29;25.40;99.90
3330;DHT22;1677;49.576;10.990;2023-06-22T07:10:54;25.50;99.90
3330;DHT22;1677;49.576;10.990;2023-06-22T07:13:20;25.60;99.90
3330;DHT22;1677;49.576;10.990;2023-06-22T07:15:46;25.60;99.90
3330;DHT22;1677;49.576;10.990;2023-06-22T07:18:11;25.70;99.90
3330;DHT22;1677;49.576;10.990;2023-06-22T07:20:36;25.90;99.90
3330;DHT22;1677;49.576;10.990;2023-06-22T07:23:02;26.00;99.90
3330;DHT22;1677;49.576;10.990;2023-06-22T07:25:28;26.20;99.90
3330;DHT22;1677;49.576;10.990;2023-06-22T07:30:22;26.60;99.90
3330;DHT22;1677;49.576;10.990;2023-06-22T07:32:48;26.90;99.90
3330;DHT22;1677;49.576;10.990;2023-06-22T07:35:13;27.20;99.90
3330;DHT22;1677;49.576;10.990;2023-06-22T07:37:41;27.10;99.90
3330;DHT22;1677;49.576;10.990;2023-06-22T07:40:07;27.30;99.90
3330;DHT22;1677;49.576;10.990;2023-06-22T07:42:33;27.40;99.90
3330;DHT22;1677;49.576;10.990;2023-06-22T07:44:58;27.60;99.90
3330;DHT22;1677;49.576;10.990;2023-06-22T07:47:24;27.50;99.90
3330;DHT22;1677;49.576;10.990;2023-06-22T07:49:51;27.50;99.90
3330;DHT22;1677;49.576;10.990;2023-06-22T07:52:20;27.70;99.90
3330;DHT22;1677;49.576;10.990;2023-06-22T07:54:46;27.70;99.90
3330;DHT22;1677;49.576;10.990;2023-06-22T07:57:12;27.70;99.90
3330;DHT22;1677;49.576;10.990;2023-06-22T07:59:37;27.90;99.90
3330;DHT22;1677;49.576;10.990;2023-06-22T08:02:03;28.10;99.90
3330;DHT22;1677;49.576;10.990;2023-06-22T08:04:29;28.30;99.90
3330;DHT22;1677;49.576;10.990;2023-06-22T08:06:56;28.50;99.90
3330;DHT22;1677;49.576;10.990;2023-06-22T08:09:21;28.60;99.90
3330;DHT22;1677;49.576;10.990;2023-06-22T08:11:47;28.70;99.90
3330;DHT22;1677;49.576;10.990;2023-06-22T08:14:13;28.70;99.90
3330;DHT22;1677;49.576;10.990;2023-06-22T08:16:39;28.80;99.90
3330;DHT22;1677;49.576;10.990;2023-06-22T08:19:05;29.20;99.90
3330;DHT22;1677;49.576;10.990;2023-06-22T08:21:31;29.40;99.90
3330;DHT22;1677;49.576;10.990;2023-06-22T08:23:56;29.60;99.70
3330;DHT22;1677;49.576;10.990;2023-06-22T08:26:22;29.80;99.90
3330;DHT22;1677;49.576;10.990;2023-06-22T08:28:48;29.80;98.60
3330;DHT22;1677;49.576;10.990;2023-06-22T08:31:14;29.80;98.10
3330;DHT22;1677;49.576;10.990;2023-06-22T08:33:40;29.90;97.80
3330;DHT22;1677;49.576;10.990;2023-06-22T08:36:05;29.90;97.90
3330;DHT22;1677;49.576;10.990;2023-06-22T08:38:31;30.00;97.30
3330;DHT22;1677;49.576;10.990;2023-06-22T08:40:57;30.20;97.80
3330;DHT22;1677;49.576;10.990;2023-06-22T08:43:22;30.60;96.70
3330;DHT22;1677;49.576;10.990;2023-06-22T08:45:48;30.80;96.20
3330;DHT22;1677;49.576;10.990;2023-06-22T08:48:14;30.80;95.70
3330;DHT22;1677;49.576;10.990;2023-06-22T08:50:39;30.90;95.20
3330;DHT22;1677;49.576;10.990;2023-06-22T08:53:05;30.90;96.10
3330;DHT22;1677;49.576;10.990;2023-06-22T08:55:31;30.90;94.70
3330;DHT22;1677;49.576;10.990;2023-06-22T08:57:57;31.30;95.20
3330;DHT22;1677;49.576;10.990;2023-06-22T09:00:22;31.10;95.20
3330;DHT22;1677;49.576;10.990;2023-06-22T09:02:48;31.50;94.50
3330;DHT22;1677;49.576;10.990;2023-06-22T09:05:13;31.60;92.50
3330;DHT22;1677;49.576;10.990;2023-06-22T09:07:39;31.50;92.60
3330;DHT22;1677;49.576;10.990;2023-06-22T09:10:05;31.70;92.30
3330;DHT22;1677;49.576;10.990;2023-06-22T09:12:31;31.70;92.50
3330;DHT22;1677;49.576;10.990;2023-06-22T09:14:58;31.80;92.00
3330;DHT22;1677;49.576;10.990;2023-06-22T09:17:25;32.00;91.00
3330;DHT22;1677;49.576;10.990;2023-06-22T09:19:51;32.30;90.60
3330;DHT22;1677;49.576;10.990;2023-06-22T09:22:16;32.10;89.70
3330;DHT22;1677;49.576;10.990;2023-06-22T09:24:42;32.30;90.10
3330;DHT22;1677;49.576;10.990;2023-06-22T09:27:07;32.60;90.10
3330;DHT22;1677;49.576;10.990;2023-06-22T09:29:33;32.60;87.70
3330;DHT22;1677;49.576;10.990;2023-06-22T09:31:59;32.40;89.00
3330;DHT22;1677;49.576;10.990;2023-06-22T09:34:25;32.40;88.10
3330;DHT22;1677;49.576;10.990;2023-06-22T09:36:50;32.50;88.10
3330;DHT22;1677;49.576;10.990;2023-06-22T09:39:17;32.70;89.20
3330;DHT22;1677;49.576;10.990;2023-06-22T09:41:42;33.00;86.40
3330;DHT22;1677;49.576;10.990;2023-06-22T09:44:08;32.90;85.90
3330;DHT22;1677;49.576;10.990;2023-06-22T09:46:33;33.00;87.60
3330;DHT22;1677;49.576;10.990;2023-06-22T09:48:59;32.90;86.50
3330;DHT22;1677;49.576;10.990;2023-06-22T09:51:24;33.10;84.00
3330;DHT22;1677;49.576;10.990;2023-06-22T09:53:50;32.80;83.70
3330;DHT22;1677;49.576;10.990;2023-06-22T09:56:16;33.10;83.60
3330;DHT22;1677;49.576;10.990;2023-06-22T09:58:42;33.20;82.10
3330;DHT22;1677;49.576;10.990;2023-06-22T10:01:07;33.10;82.80
3330;DHT22;1677;49.576;10.990;2023-06-22T10:03:33;33.10;83.20
3330;DHT22;1677;49.576;10.990;2023-06-22T10:05:58;33.50;83.80
3330;DHT22;1677;49.576;10.990;2023-06-22T10:08:24;33.60;81.10
3330;DHT22;1677;49.576;10.990;2023-06-22T10:10:49;33.80;80.70
3330;DHT22;1677;49.576;10.990;2023-06-22T10:13:15;33.80;79.90
3330;DHT22;1677;49.576;10.990;2023-06-22T10:15:41;34.00;80.50
3330;DHT22;1677;49.576;10.990;2023-06-22T10:18:07;34.40;77.90
3330;DHT22;1677;49.576;10.990;2023-06-22T10:20:33;34.80;75.80
3330;DHT22;1677;49.576;10.990;2023-06-22T10:22:58;35.10;78.10
3330;DHT22;1677;49.576;10.990;2023-06-22T10:25:24;35.30;73.20
3330;DHT22;1677;49.576;10.990;2023-06-22T10:27:50;35.30;74.50
3330;DHT22;1677;49.576;10.990;2023-06-22T10:30:15;35.50;71.60
3330;DHT22;1677;49.576;10.990;2023-06-22T10:32:41;34.90;70.70
3330;DHT22;1677;49.576;10.990;2023-06-22T10:35:08;35.00;72.30
3330;DHT22;1677;49.576;10.990;2023-06-22T10:37:35;35.00;70.10
3330;DHT22;1677;49.576;10.990;2023-06-22T10:40:01;34.90;73.70
3330;DHT22;1677;49.576;10.990;2023-06-22T10:42:26;35.40;71.20
3330;DHT22;1677;49.576;10.990;2023-06-22T10:44:52;35.60;71.40
3330;DHT22;1677;49.576;10.990;2023-06-22T10:47:17;35.80;71.30
3330;DHT22;1677;49.576;10.990;2023-06-22T10:49:43;35.60;71.20
3330;DHT22;1677;49.576;10.990;2023-06-22T10:52:08;35.70;70.40
3330;DHT22;1677;49.576;10.990;2023-06-22T10:54:34;35.80;66.80
3330;DHT22;1677;49.576;10.990;2023-06-22T10:57:00;36.10;70.50
3330;DHT22;1677;49.576;10.990;2023-06-22T10:59:26;36.10;65.50
3330;DHT22;1677;49.576;10.990;2023-06-22T11:01:52;36.20;68.10
3330;DHT22;1677;49.576;10.990;2023-06-22T11:04:18;36.40;66.40
3330;DHT22;1677;49.576;10.990;2023-06-22T11:06:43;36.70;64.90
3330;DHT22;1677;49.576;10.990;2023-06-22T11:09:09;37.10;62.70
3330;DHT22;1677;49.576;10.990;2023-06-22T11:11:34;37.20;62.00
3330;DHT22;1677;49.576;10.990;2023-06-22T11:14:00;37.30;58.70
3330;DHT22;1677;49.576;10.990;2023-06-22T11:16:26;37.10;56.40
3330;DHT22;1677;49.576;10.990;2023-06-22T11:18:51;37.10;57.10
3330;DHT22;1677;49.576;10.990;2023-06-22T11:21:16;36.40;56.30
3330;DHT22;1677;49.576;10.990;2023-06-22T11:23:42;35.90;57.80
3330;DHT22;1677;49.576;10.990;2023-06-22T11:26:07;35.70;57.30
3330;DHT22;1677;49.576;10.990;2023-06-22T11:28:33;35.70;58.70
3330;DHT22;1677;49.576;10.990;2023-06-22T11:30:58;35.70;59.20
3330;DHT22;1677;49.576;10.990;2023-06-22T11:33:24;36.10;59.90
3330;DHT22;1677;49.576;10.990;2023-06-22T11:35:49;36.60;56.40
3330;DHT22;1677;49.576;10.990;2023-06-22T11:38:15;36.80;55.60
3330;DHT22;1677;49.576;10.990;2023-06-22T11:40:40;37.00;55.10
3330;DHT22;1677;49.576;10.990;2023-06-22T11:43:06;37.20;58.00
3330;DHT22;1677;49.576;10.990;2023-06-22T11:45:31;37.20;57.60
3330;DHT22;1677;49.576;10.990;2023-06-22T11:47:57;37.30;54.60
3330;DHT22;1677;49.576;10.990;2023-06-22T11:50:22;37.30;54.30
3330;DHT22;1677;49.576;10.990;2023-06-22T11:52:48;37.80;53.40
3330;DHT22;1677;49.576;10.990;2023-06-22T11:55:13;38.00;52.40
3330;DHT22;1677;49.576;10.990;2023-06-22T11:57:51;38.40;51.00
3330;DHT22;1677;49.576;10.990;2023-06-22T12:00:17;38.60;49.40
3330;DHT22;1677;49.576;10.990;2023-06-22T12:02:45;38.60;48.30
3330;DHT22;1677;49.576;10.990;2023-06-22T12:05:11;38.70;47.00
3330;DHT22;1677;49.576;10.990;2023-06-22T12:07:37;37.70;48.30
3330;DHT22;1677;49.576;10.990;2023-06-22T12:10:03;37.80;49.60
3330;DHT22;1677;49.576;10.990;2023-06-22T12:12:28;37.90;48.70
3330;DHT22;1677;49.576;10.990;2023-06-22T12:14:54;37.70;49.50
3330;DHT22;1677;49.576;10.990;2023-06-22T12:17:19;37.90;50.60
3330;DHT22;1677;49.576;10.990;2023-06-22T12:19:45;38.30;49.80
3330;DHT22;1677;49.576;10.990;2023-06-22T12:22:10;38.20;49.40
3330;DHT22;1677;49.576;10.990;2023-06-22T12:24:36;38.10;48.60
3330;DHT22;1677;49.576;10.990;2023-06-22T12:27:01;37.60;48.80
3330;DHT22;1677;49.576;10.990;2023-06-22T12:29:28;37.60;49.30
3330;DHT22;1677;49.576;10.990;2023-06-22T12:31:54;37.50;48.60
3330;DHT22;1677;49.576;10.990;2023-06-22T12:34:19;38.00;48.70
3330;DHT22;1677;49.576;10.990;2023-06-22T12:36:45;37.70;48.20
3330;DHT22;1677;49.576;10.990;2023-06-22T12:39:12;37.60;47.70
3330;DHT22;1677;49.576;10.990;2023-06-22T12:41:38;37.40;48.10
3330;DHT22;1677;49.576;10.990;2023-06-22T12:44:03;37.20;49.60
3330;DHT22;1677;49.576;10.990;2023-06-22T12:46:29;37.10;52.30
3330;DHT22;1677;49.576;10.990;2023-06-22T12:48:56;37.40;52.40
3330;DHT22;1677;49.576;10.990;2023-06-22T12:51:21;37.70;51.20
3330;DHT22;1677;49.576;10.990;2023-06-22T12:53:47;37.80;51.20
3330;DHT22;1677;49.576;10.990;2023-06-22T12:56:13;38.00;50.60
3330;DHT22;1677;49.576;10.990;2023-06-22T12:58:38;38.00;50.30
3330;DHT22;1677;49.576;10.990;2023-06-22T13:01:04;37.90;47.60
3330;DHT22;1677;49.576;10.990;2023-06-22T13:03:29;37.60;48.40
3330;DHT22;1677;49.576;10.990;2023-06-22T13:05:55;37.50;49.00
3330;DHT22;1677;49.576;10.990;2023-06-22T13:08:20;37.40;48.60
3330;DHT22;1677;49.576;10.990;2023-06-22T13:10:46;37.30;47.70
3330;DHT22;1677;49.576;10.990;2023-06-22T13:13:11;37.00;49.10
3330;DHT22;1677;49.576;10.990;2023-06-22T13:15:37;37.00;49.50
3330;DHT22;1677;49.576;10.990;2023-06-22T13:18:02;37.20;52.00
3330;DHT22;1677;49.576;10.990;2023-06-22T13:20:28;36.90;49.40
3330;DHT22;1677;49.576;10.990;2023-06-22T13:22:54;37.10;50.80
3330;DHT22;1677;49.576;10.990;2023-06-22T13:25:20;37.20;51.20
3330;DHT22;1677;49.576;10.990;2023-06-22T13:27:49;37.30;50.40
3330;DHT22;1677;49.576;10.990;2023-06-22T13:30:14;37.50;48.40
3330;DHT22;1677;49.576;10.990;2023-06-22T13:32:40;37.50;48.30
3330;DHT22;1677;49.576;10.990;2023-06-22T13:35:07;37.40;49.50
3330;DHT22;1677;49.576;10.990;2023-06-22T13:37:33;37.20;47.60
3330;DHT22;1677;49.576;10.990;2023-06-22T13:39:58;37.00;48.20
3330;DHT22;1677;49.576;10.990;2023-06-22T13:42:24;36.70;49.80
3330;DHT22;1677;49.576;10.990;2023-06-22T13:44:50;36.60;48.90
3330;DHT22;1677;49.576;10.990;2023-06-22T13:47:15;36.40;48.90
3330;DHT22;1677;49.576;10.990;2023-06-22T13:49:41;36.10;49.10
3330;DHT22;1677;49.576;10.990;2023-06-22T13:52:06;36.00;50.10
3330;DHT22;1677;49.576;10.990;2023-06-22T13:54:35;36.10;51.40
3330;DHT22;1677;49.576;10.990;2023-06-22T13:57:01;36.20;50.90
3330;DHT22;1677;49.576;10.990;2023-06-22T13:59:26;36.40;50.30
3330;DHT22;1677;49.576;10.990;2023-06-22T14:01:53;36.70;52.00
3330;DHT22;1677;49.576;10.990;2023-06-22T14:04:19;36.70;49.00
3330;DHT22;1677;49.576;10.990;2023-06-22T14:06:44;36.70;48.70
3330;DHT22;1677;49.576;10.990;2023-06-22T14:09:10;36.70;50.20
3330;DHT22;1677;49.576;10.990;2023-06-22T14:11:35;36.70;49.10
3330;DHT22;1677;49.576;10.990;2023-06-22T14:14:01;36.80;48.70
3330;DHT22;1677;49.576;10.990;2023-06-22T14:16:26;36.60;47.90
3330;DHT22;1677;49.576;10.990;2023-06-22T14:18:52;36.30;48.30
3330;DHT22;1677;49.576;10.990;2023-06-22T14:21:17;36.20;51.60
3330;DHT22;1677;49.576;10.990;2023-06-22T14:23:44;35.90;52.90
3330;DHT22;1677;49.576;10.990;2023-06-22T14:26:14;35.80;49.60
3330;DHT22;1677;49.576;10.990;2023-06-22T14:28:40;35.80;49.20
3330;DHT22;1677;49.576;10.990;2023-06-22T14:31:05;35.90;49.90
3330;DHT22;1677;49.576;10.990;2023-06-22T14:33:31;36.10;49.40
3330;DHT22;1677;49.576;10.990;2023-06-22T14:35:56;36.00;49.20
3330;DHT22;1677;49.576;10.990;2023-06-22T14:38:22;35.20;49.50
3330;DHT22;1677;49.576;10.990;2023-06-22T14:40:47;35.20;51.50
3330;DHT22;1677;49.576;10.990;2023-06-22T14:43:15;35.50;50.70
3330;DHT22;1677;49.576;10.990;2023-06-22T14:45:40;35.80;50.10
3330;DHT22;1677;49.576;10.990;2023-06-22T14:48:06;35.80;48.80
3330;DHT22;1677;49.576;10.990;2023-06-22T14:50:31;35.30;49.00
3330;DHT22;1677;49.576;10.990;2023-06-22T14:52:57;35.20;50.30
3330;DHT22;1677;49.576;10.990;2023-06-22T14:55:22;35.30;49.70
3330;DHT22;1677;49.576;10.990;2023-06-22T14:57:47;35.10;50.20
3330;DHT22;1677;49.576;10.990;2023-06-22T15:00:13;35.10;50.90
3330;DHT22;1677;49.576;10.990;2023-06-22T15:02:39;35.20;50.60
3330;DHT22;1677;49.576;10.990;2023-06-22T15:05:06;35.40;52.40
3330;DHT22;1677;49.576;10.990;2023-06-22T15:07:31;35.50;51.40
3330;DHT22;1677;49.576;10.990;2023-06-22T15:09:57;35.60;52.40
3330;DHT22;1677;49.576;10.990;2023-06-22T15:12:22;35.50;50.70
3330;DHT22;1677;49.576;10.990;2023-06-22T15:14:48;35.20;50.10
3330;DHT22;1677;49.576;10.990;2023-06-22T15:17:13;34.90;50.40
3330;DHT22;1677;49.576;10.990;2023-06-22T15:19:40;34.60;50.90
3330;DHT22;1677;49.576;10.990;2023-06-22T15:22:06;34.60;50.90
3330;DHT22;1677;49.576;10.990;2023-06-22T15:24:32;34.60;51.30
3330;DHT22;1677;49.576;10.990;2023-06-22T15:26:57;34.60;50.80
3330;DHT22;1677;49.576;10.990;2023-06-22T15:29:23;34.50;50.80
3330;DHT22;1677;49.576;10.990;2023-06-22T15:31:48;34.50;51.50
3330;DHT22;1677;49.576;10.990;2023-06-22T15:34:14;34.40;51.50
3330;DHT22;1677;49.576;10.990;2023-06-22T15:36:39;34.40;51.60
3330;DHT22;1677;49.576;10.990;2023-06-22T15:39:05;34.40;51.60
3330;DHT22;1677;49.576;10.990;2023-06-22T15:41:30;34.30;52.60
3330;DHT22;1677;49.576;10.990;2023-06-22T15:43:56;34.40;52.10